Sadan Bayraktar — TCRB — position and weather

sailwx.info

Track history (hours):
 
Tides and Currents Weather Stations Pressure Air Temp Water Temp Dewpoint Dewpoint Depression Visibility Wind Speed Wind Dir Waves Ship Positions

Sadan Bayraktar

Last reported at 2017-Jan-08 14:33 UTC. Time now 2017-Jan-17 08:49 UTC.
Position N 39°24' W 000°14'.
Warning: this ship's position is 8 days out of date.

Length 116 m; draft 7.1 m.

Type: Ship. MMSI: 271000653.

Date/timePositionNaut miles runAvg speedWind from/ knotsBaromVisibWave heightAir tempDewpointWater temp
2017-Jan-08 14:33N 39°24' W 000°14'5 4.5
2017-Jan-08 13:31N 39°27' W 000°19'0 0.0
2017-Jan-08 12:31N 39°27' W 000°19'0 0.0
2017-Jan-08 11:19N 39°27' W 000°19'0 0.0
2017-Jan-08 10:31N 39°27' W 000°19'0 0.0
2017-Jan-08 09:31N 39°27' W 000°19'0 0.0
2017-Jan-08 08:31N 39°27' W 000°19'0 0.0
2017-Jan-08 07:31N 39°27' W 000°19'0 0.0
2017-Jan-08 06:31N 39°27' W 000°19'0 0.0
2017-Jan-08 05:28N 39°27' W 000°19'0 0.0
2017-Jan-08 04:31N 39°27' W 000°19'0 0.0
2017-Jan-08 03:28N 39°27' W 000°19'0 0.0
2017-Jan-08 02:31N 39°27' W 000°19'0 0.0
2017-Jan-08 01:31N 39°27' W 000°19'0 0.0
2017-Jan-08 00:31N 39°27' W 000°19'0 0.0
2017-Jan-07 23:31N 39°27' W 000°19'0 0.0
2017-Jan-07 22:31N 39°27' W 000°19'0 0.0
2017-Jan-07 21:31N 39°27' W 000°19'0 0.0
2017-Jan-07 20:31N 39°27' W 000°19'0 0.0
2017-Jan-07 19:07N 39°27' W 000°19'0 0.0
2017-Jan-07 18:31N 39°27' W 000°19'0 0.0
2017-Jan-07 17:31N 39°27' W 000°19'0 0.0
2017-Jan-07 16:31N 39°27' W 000°19'0 0.0
2017-Jan-07 15:32N 39°27' W 000°19'0 0.0
2017-Jan-07 14:32N 39°27' W 000°19'0 0.0
2017-Jan-07 13:32N 39°27' W 000°19'0 0.0
2017-Jan-07 12:32N 39°27' W 000°19'10 3.1
2017-Jan-07 09:12N 39°32' W 000°07'8412.2
2017-Jan-07 02:17N 40°29' E 001°14'1212.6
2017-Jan-07 01:22N 40°37' E 001°25'1012.9
2017-Jan-07 00:33N 40°44' E 001°36'4212.6
2017-Jan-06 21:13N 41°16' E 002°11'225 6.7
2017-Jan-05 11:27N 37°59' W 000°08'1512.5
2017-Jan-05 10:17N 37°47' W 000°19'912.1
2017-Jan-05 09:33N 37°39' W 000°25'1211.8
2017-Jan-05 08:33N 37°30' W 000°35'1312.6
2017-Jan-05 07:33N 37°22' W 000°46'1312.5
2017-Jan-05 06:33N 37°14' W 000°58'1311.9
2017-Jan-05 05:27N 37°05' W 001°11'6011.3
2017-Jan-05 00:09N 36°25' W 002°07'711.2
2017-Jan-04 23:33N 36°22' W 002°14'1311.7
2017-Jan-04 22:26N 36°20' W 002°30'13312.3
2017-Jan-04 11:33N 35°59' W 005°13'  
2016-Dec-30 07:33N 39°24' W 000°14'6 1.7
2016-Dec-30 04:24N 39°27' W 000°19'0 0.0
2016-Dec-30 03:27N 39°27' W 000°19'0 0.0
2016-Dec-30 02:33N 39°27' W 000°19'0 0.0
2016-Dec-30 01:33N 39°27' W 000°19'0 0.0
2016-Dec-30 00:24N 39°27' W 000°19'0 0.0
2016-Dec-29 23:33N 39°27' W 000°19'0 0.0
2016-Dec-29 22:21N 39°27' W 000°19'0 0.0
2016-Dec-29 16:15N 39°27' W 000°19'  
Track history (hours):
 
Tides and Currents Weather Stations Pressure Air Temp Water Temp Dewpoint Dewpoint Depression Visibility Wind Speed Wind Dir Waves Ship Positions

Sadan Bayraktar

Last reported at 2017-Jan-08 14:33 UTC. Time now 2017-Jan-17 08:49 UTC.
Position N 39°24' W 000°14'.
Warning: this ship's position is 8 days out of date.

Length 116 m; draft 7.1 m.

Type: Ship. MMSI: 271000653.

Date/timePositionNaut miles runAvg speedWind from/ knotsBaromVisibWave heightAir tempDewpointWater temp
2017-Jan-08 14:33N 39°24' W 000°14'5 4.5
2017-Jan-08 13:31N 39°27' W 000°19'0 0.0
2017-Jan-08 12:31N 39°27' W 000°19'0 0.0
2017-Jan-08 11:19N 39°27' W 000°19'0 0.0
2017-Jan-08 10:31N 39°27' W 000°19'0 0.0
2017-Jan-08 09:31N 39°27' W 000°19'0 0.0
2017-Jan-08 08:31N 39°27' W 000°19'0 0.0
2017-Jan-08 07:31N 39°27' W 000°19'0 0.0
2017-Jan-08 06:31N 39°27' W 000°19'0 0.0
2017-Jan-08 05:28N 39°27' W 000°19'0 0.0
2017-Jan-08 04:31N 39°27' W 000°19'0 0.0
2017-Jan-08 03:28N 39°27' W 000°19'0 0.0
2017-Jan-08 02:31N 39°27' W 000°19'0 0.0
2017-Jan-08 01:31N 39°27' W 000°19'0 0.0
2017-Jan-08 00:31N 39°27' W 000°19'0 0.0
2017-Jan-07 23:31N 39°27' W 000°19'0 0.0
2017-Jan-07 22:31N 39°27' W 000°19'0 0.0
2017-Jan-07 21:31N 39°27' W 000°19'0 0.0
2017-Jan-07 20:31N 39°27' W 000°19'0 0.0
2017-Jan-07 19:07N 39°27' W 000°19'0 0.0
2017-Jan-07 18:31N 39°27' W 000°19'0 0.0
2017-Jan-07 17:31N 39°27' W 000°19'0 0.0
2017-Jan-07 16:31N 39°27' W 000°19'0 0.0
2017-Jan-07 15:32N 39°27' W 000°19'0 0.0
2017-Jan-07 14:32N 39°27' W 000°19'0 0.0
2017-Jan-07 13:32N 39°27' W 000°19'0 0.0
2017-Jan-07 12:32N 39°27' W 000°19'10 3.1
2017-Jan-07 09:12N 39°32' W 000°07'8412.2
2017-Jan-07 02:17N 40°29' E 001°14'1212.6
2017-Jan-07 01:22N 40°37' E 001°25'1012.9
2017-Jan-07 00:33N 40°44' E 001°36'4212.6
2017-Jan-06 21:13N 41°16' E 002°11'225 6.7
2017-Jan-05 11:27N 37°59' W 000°08'1512.5
2017-Jan-05 10:17N 37°47' W 000°19'912.1
2017-Jan-05 09:33N 37°39' W 000°25'1211.8
2017-Jan-05 08:33N 37°30' W 000°35'1312.6
2017-Jan-05 07:33N 37°22' W 000°46'1312.5
2017-Jan-05 06:33N 37°14' W 000°58'1311.9
2017-Jan-05 05:27N 37°05' W 001°11'6011.3
2017-Jan-05 00:09N 36°25' W 002°07'711.2
2017-Jan-04 23:33N 36°22' W 002°14'1311.7
2017-Jan-04 22:26N 36°20' W 002°30'13312.3
2017-Jan-04 11:33N 35°59' W 005°13'  
2016-Dec-30 07:33N 39°24' W 000°14'6 1.7
2016-Dec-30 04:24N 39°27' W 000°19'0 0.0
2016-Dec-30 03:27N 39°27' W 000°19'0 0.0
2016-Dec-30 02:33N 39°27' W 000°19'0 0.0
2016-Dec-30 01:33N 39°27' W 000°19'0 0.0
2016-Dec-30 00:24N 39°27' W 000°19'0 0.0
2016-Dec-29 23:33N 39°27' W 000°19'0 0.0
2016-Dec-29 22:21N 39°27' W 000°19'0 0.0
2016-Dec-29 16:15N 39°27' W 000°19'  

Dump ship's entire track history